createdAt,value
2018-09-03T00:00:06.420Z,18.9
2018-09-03T00:01:07.635Z,19
2018-09-03T00:02:11.295Z,19
2018-09-03T00:03:12.467Z,19
2018-09-03T00:04:13.668Z,19
2018-09-03T00:05:15.908Z,18.9
2018-09-03T00:06:17.331Z,18.9
2018-09-03T00:07:19.632Z,19
2018-09-03T00:08:20.780Z,18.9
2018-09-03T00:09:21.926Z,18.9
2018-09-03T00:10:23.095Z,18.9
2018-09-03T00:11:24.359Z,18.9
2018-09-03T00:12:27.923Z,18.9
2018-09-03T00:13:29.079Z,18.9
2018-09-03T00:14:30.273Z,18.9
2018-09-03T00:15:31.413Z,18.9
2018-09-03T00:16:32.565Z,18.8
2018-09-03T00:17:33.705Z,18.9
2018-09-03T00:18:34.834Z,18.8
2018-09-03T00:19:35.957Z,18.9
2018-09-03T00:20:37.113Z,18.9
2018-09-03T00:21:38.291Z,18.9
2018-09-03T00:22:39.551Z,18.9
2018-09-03T00:23:40.716Z,18.8
2018-09-03T00:24:41.848Z,18.8
2018-09-03T00:25:43.025Z,18.8
2018-09-03T00:26:44.246Z,18.8
2018-09-03T00:27:45.385Z,18.9
2018-09-03T00:28:46.576Z,18.8
2018-09-03T00:29:47.719Z,18.8
2018-09-03T00:30:48.872Z,18.8
2018-09-03T00:31:50.334Z,18.8
2018-09-03T00:32:51.498Z,18.9
2018-09-03T00:33:52.687Z,18.9
2018-09-03T00:34:53.835Z,18.9
2018-09-03T00:35:55.008Z,18.9
2018-09-03T00:36:56.462Z,18.9
2018-09-03T00:38:00.644Z,18.9
2018-09-03T00:39:01.891Z,18.9
2018-09-03T00:40:03.077Z,19
2018-09-03T00:41:04.252Z,18.9
2018-09-03T00:42:05.420Z,19
2018-09-03T00:43:06.704Z,18.9
2018-09-03T00:44:07.861Z,18.9
2018-09-03T00:45:11.522Z,18.9
2018-09-03T00:46:12.787Z,19
2018-09-03T00:47:14.197Z,18.9
2018-09-03T00:48:15.589Z,18.8
2018-09-03T00:49:16.741Z,18.8
2018-09-03T00:50:17.948Z,18.8
2018-09-03T00:51:19.137Z,18.8
2018-09-03T00:52:20.366Z,18.8
2018-09-03T00:53:21.671Z,18.8
2018-09-03T00:54:23.098Z,18.8
2018-09-03T00:55:24.517Z,18.8
2018-09-03T00:56:25.668Z,18.8
2018-09-03T00:57:27.023Z,18.8
2018-09-03T00:58:28.437Z,18.8
2018-09-03T00:59:29.604Z,18.8
2018-09-03T01:00:33.779Z,18.8
2018-09-03T01:01:34.929Z,18.8
2018-09-03T01:02:36.126Z,18.8
2018-09-03T01:03:37.310Z,18.8
2018-09-03T01:04:42.488Z,18.8
2018-09-03T01:05:43.650Z,18.8
2018-09-03T01:06:47.039Z,18.8
2018-09-03T01:07:48.540Z,18.7
2018-09-03T01:08:49.681Z,18.8
2018-09-03T01:09:50.932Z,18.8
2018-09-03T01:10:52.096Z,18.8
2018-09-03T01:11:53.272Z,18.8
2018-09-03T01:12:54.612Z,18.8
2018-09-03T01:13:58.594Z,18.8
2018-09-03T01:14:59.768Z,18.8
2018-09-03T01:16:01.019Z,18.7
2018-09-03T01:17:02.252Z,18.7
2018-09-03T01:18:03.747Z,18.7
2018-09-03T01:19:04.954Z,18.7
2018-09-03T01:20:10.709Z,18.8
2018-09-03T01:21:11.886Z,18.8
2018-09-03T01:22:13.053Z,18.8
2018-09-03T01:23:16.148Z,18.7
2018-09-03T01:24:17.327Z,18.7
2018-09-03T01:25:18.524Z,18.8
2018-09-03T01:26:19.829Z,18.8
2018-09-03T01:27:21.410Z,18.8
2018-09-03T01:28:22.618Z,18.8
2018-09-03T01:29:23.814Z,18.8
2018-09-03T01:30:25.006Z,18.7
2018-09-03T01:31:26.204Z,18.8
2018-09-03T01:32:27.369Z,18.8
2018-09-03T01:33:28.623Z,18.8
2018-09-03T01:34:29.784Z,18.8
2018-09-03T01:35:31.007Z,18.7
2018-09-03T01:36:32.172Z,18.8
2018-09-03T01:37:33.529Z,18.8
2018-09-03T01:38:35.095Z,18.8
2018-09-03T01:39:36.244Z,18.8
2018-09-03T01:40:37.390Z,18.8
2018-09-03T01:41:38.542Z,18.8
2018-09-03T01:42:39.734Z,18.8
2018-09-03T01:43:40.989Z,18.8
2018-09-03T01:44:42.114Z,18.8
2018-09-03T01:45:43.264Z,18.8
2018-09-03T01:46:44.452Z,18.8
2018-09-03T01:47:45.714Z,18.8
2018-09-03T01:48:46.913Z,18.8
2018-09-03T01:49:50.575Z,18.8
2018-09-03T01:50:51.753Z,18.9
2018-09-03T01:51:52.955Z,18.9
2018-09-03T01:52:54.116Z,18.8
2018-09-03T01:53:55.408Z,18.8
2018-09-03T01:54:56.564Z,18.8
2018-09-03T01:55:57.725Z,18.9
2018-09-03T01:56:58.947Z,18.8
2018-09-03T01:58:00.095Z,18.8
2018-09-03T01:59:01.318Z,18.8
2018-09-03T02:00:02.520Z,18.8
2018-09-03T02:01:03.718Z,18.9
2018-09-03T02:02:04.913Z,18.8
2018-09-03T02:03:06.052Z,18.7
2018-09-03T02:04:07.244Z,18.7
2018-09-03T02:05:11.369Z,18.7
2018-09-03T02:06:12.558Z,18.8
2018-09-03T02:07:13.769Z,18.5
2018-09-03T02:08:14.998Z,18.8
2018-09-03T02:09:16.294Z,18.8
2018-09-03T02:10:17.474Z,18.8
2018-09-03T02:11:18.656Z,18.8
2018-09-03T02:12:22.287Z,18.7
2018-09-03T02:13:23.894Z,18.7
2018-09-03T02:14:25.138Z,18.7
2018-09-03T02:15:27.695Z,18.7
2018-09-03T02:16:28.889Z,18.7
2018-09-03T02:17:30.045Z,18.7
2018-09-03T02:18:31.233Z,18.7
2018-09-03T02:19:32.447Z,18.7
2018-09-03T02:20:36.616Z,18.8
2018-09-03T02:21:38.038Z,18.7
2018-09-03T02:22:39.215Z,18.8
2018-09-03T02:23:40.364Z,18.7
2018-09-03T02:24:41.590Z,18.6
2018-09-03T02:25:42.754Z,18.7
2018-09-03T02:26:43.933Z,18.7
2018-09-03T02:27:45.145Z,18.7
2018-09-03T02:28:46.358Z,18.7
2018-09-03T02:29:47.523Z,18.6
2018-09-03T02:30:48.670Z,18.7
2018-09-03T02:31:49.911Z,18.7
2018-09-03T02:32:51.129Z,18.7
2018-09-03T02:33:52.285Z,18.7
2018-09-03T02:34:53.498Z,18.7
2018-09-03T02:35:54.656Z,18.7
2018-09-03T02:36:55.802Z,18.7
2018-09-03T02:37:56.976Z,18.7
2018-09-03T02:38:58.118Z,18.7
2018-09-03T02:39:59.649Z,18.7
2018-09-03T02:41:00.819Z,18.7
2018-09-03T02:42:01.956Z,18.7
2018-09-03T02:43:03.113Z,18.7
2018-09-03T02:44:04.255Z,18.7
2018-09-03T02:45:05.630Z,18.7
2018-09-03T02:46:06.776Z,18.7
2018-09-03T02:47:07.927Z,18.7
2018-09-03T02:48:09.078Z,18.7
2018-09-03T02:49:10.314Z,18.7
2018-09-03T02:50:11.532Z,18.6
2018-09-03T02:51:12.754Z,18.6
2018-09-03T02:52:14.312Z,18.6
2018-09-03T02:53:15.515Z,18.6
2018-09-03T02:54:16.696Z,18.7
2018-09-03T02:55:17.949Z,18.6
2018-09-03T02:56:19.093Z,18.6
2018-09-03T02:57:20.270Z,18.5
2018-09-03T02:58:21.448Z,18.5
2018-09-03T02:59:22.601Z,18.6
2018-09-03T03:00:23.809Z,18.7
2018-09-03T03:01:25.077Z,18.7
2018-09-03T03:02:26.246Z,18.7
2018-09-03T03:03:27.441Z,18.6
2018-09-03T03:04:28.607Z,18.5
2018-09-03T03:05:29.831Z,18.5
2018-09-03T03:06:31.062Z,18.5
2018-09-03T03:07:32.217Z,18.5
2018-09-03T03:08:33.387Z,18.4
2018-09-03T03:09:34.616Z,18.5
2018-09-03T03:10:35.908Z,18.5
2018-09-03T03:11:37.061Z,18.5
2018-09-03T03:12:38.217Z,18.4
2018-09-03T03:13:39.362Z,18.5
2018-09-03T03:14:40.550Z,18.5
2018-09-03T03:15:41.996Z,18.5
2018-09-03T03:16:43.446Z,18.5
2018-09-03T03:17:44.620Z,18.4
2018-09-03T03:18:46.053Z,18.4
2018-09-03T03:19:47.454Z,18.4
2018-09-03T03:20:48.635Z,18.4
2018-09-03T03:21:49.809Z,18.3
2018-09-03T03:22:53.284Z,18.4
2018-09-03T03:23:54.410Z,18.4
2018-09-03T03:24:55.580Z,18.4
2018-09-03T03:25:56.747Z,18.4
2018-09-03T03:27:00.964Z,18.4
2018-09-03T03:28:02.201Z,18.3
2018-09-03T03:29:06.270Z,18.3
2018-09-03T03:30:07.433Z,18.3
2018-09-03T03:31:08.615Z,18.3
2018-09-03T03:32:09.808Z,18.3
2018-09-03T03:33:11.002Z,18.3
2018-09-03T03:34:12.296Z,18.1
2018-09-03T03:35:13.632Z,18.3
2018-09-03T03:36:17.275Z,18.3
2018-09-03T03:37:18.443Z,18.3
2018-09-03T03:38:19.600Z,18.3
2018-09-03T03:39:20.748Z,18.3
2018-09-03T03:40:21.925Z,18.3
2018-09-03T03:41:23.374Z,18.2
2018-09-03T03:42:24.532Z,18.3
2018-09-03T03:43:25.689Z,18.3
2018-09-03T03:44:26.844Z,18.3
2018-09-03T03:45:28.029Z,18.3
2018-09-03T03:46:29.227Z,18.3
2018-09-03T03:47:36.622Z,18.3
2018-09-03T03:48:37.820Z,18.2
2018-09-03T03:49:38.927Z,18.2
2018-09-03T03:50:42.427Z,18.3
2018-09-03T03:51:46.704Z,18.3
2018-09-03T03:52:47.917Z,18.3
2018-09-03T03:53:49.055Z,18.2
2018-09-03T03:54:54.208Z,18.2
2018-09-03T03:55:58.084Z,18.3
2018-09-03T03:56:59.277Z,18.3
2018-09-03T03:58:00.428Z,18.2
2018-09-03T03:59:01.707Z,18.3
2018-09-03T04:00:02.970Z,18.2
2018-09-03T04:01:04.137Z,18.3
2018-09-03T04:02:05.327Z,18.3
2018-09-03T04:03:06.627Z,18.3
2018-09-03T04:04:07.767Z,18.3
2018-09-03T04:05:08.921Z,18.2
2018-09-03T04:06:10.084Z,18.3
2018-09-03T04:07:11.243Z,18.3
2018-09-03T04:08:12.388Z,18.3
2018-09-03T04:09:15.469Z,18.3
2018-09-03T04:10:16.623Z,18.3
2018-09-03T04:11:20.122Z,18.2
2018-09-03T04:12:21.981Z,18.1
2018-09-03T04:13:23.172Z,18
2018-09-03T04:14:24.342Z,18.2
2018-09-03T04:15:25.487Z,18.1
2018-09-03T04:16:26.654Z,18.2
2018-09-03T04:17:28.209Z,18.2
2018-09-03T04:18:29.348Z,18.2
2018-09-03T04:19:31.905Z,18.2
2018-09-03T04:20:33.191Z,18.1
2018-09-03T04:21:34.379Z,18.2
2018-09-03T04:22:35.556Z,17.9
2018-09-03T04:23:36.735Z,18.2
2018-09-03T04:24:41.975Z,18.1
2018-09-03T04:25:43.147Z,18.1
2018-09-03T04:26:44.370Z,18.2
2018-09-03T04:27:46.717Z,18.2
2018-09-03T04:28:47.963Z,18.2
2018-09-03T04:29:49.132Z,18.2
2018-09-03T04:30:50.556Z,18.2
2018-09-03T04:31:51.676Z,18
2018-09-03T04:32:52.865Z,18.1
2018-09-03T04:33:54.066Z,18.1
2018-09-03T04:34:55.264Z,18.2
2018-09-03T04:35:56.435Z,18.1
2018-09-03T04:36:57.581Z,18.1
2018-09-03T04:37:58.768Z,18.1
2018-09-03T04:38:59.947Z,18.1
2018-09-03T04:40:01.189Z,18.1
2018-09-03T04:41:02.358Z,18.1
2018-09-03T04:42:03.529Z,18.2
2018-09-03T04:43:04.752Z,18.1
2018-09-03T04:44:05.883Z,18.1
2018-09-03T04:45:07.068Z,18.1
2018-09-03T04:46:08.231Z,18.1
2018-09-03T04:47:09.385Z,18.1
2018-09-03T04:48:10.733Z,18.1
2018-09-03T04:49:11.896Z,18.1
2018-09-03T04:50:13.080Z,18.2
2018-09-03T04:51:14.493Z,18
2018-09-03T04:52:15.953Z,18.2
2018-09-03T04:53:17.189Z,18.1
2018-09-03T04:54:18.342Z,18.2
2018-09-03T04:55:19.564Z,18.1
2018-09-03T04:56:20.665Z,18.1
2018-09-03T04:57:21.941Z,18.1
2018-09-03T04:58:23.164Z,18.1
2018-09-03T04:59:24.304Z,18.2
2018-09-03T05:00:26.640Z,18.2
2018-09-03T05:01:29.359Z,18.2
2018-09-03T05:02:30.524Z,18.1
2018-09-03T05:03:31.753Z,18.1
2018-09-03T05:04:32.938Z,18.2
2018-09-03T05:05:34.169Z,18.2
2018-09-03T05:06:38.188Z,18.2
2018-09-03T05:07:40.346Z,18.2
2018-09-03T05:08:41.727Z,18.2
2018-09-03T05:09:42.899Z,18.2
2018-09-03T05:10:44.076Z,18.2
2018-09-03T05:11:47.566Z,18.2
2018-09-03T05:12:51.419Z,18.2
2018-09-03T05:13:52.833Z,18.2
2018-09-03T05:14:54.004Z,18.2
2018-09-03T05:15:55.134Z,18.3
2018-09-03T05:16:56.471Z,18.3
2018-09-03T05:18:00.786Z,18.3
2018-09-03T05:19:03.532Z,18.2
2018-09-03T05:20:04.781Z,18.3
2018-09-03T05:21:08.998Z,18.3
2018-09-03T05:22:12.504Z,18.2
2018-09-03T05:23:13.788Z,18.3
2018-09-03T05:24:15.157Z,18.3
2018-09-03T05:25:18.043Z,18.3
2018-09-03T05:26:19.417Z,18.3
2018-09-03T05:27:20.583Z,18.2
2018-09-03T05:28:21.837Z,18.3
2018-09-03T05:29:23.059Z,18.1
2018-09-03T05:30:24.350Z,18.3
2018-09-03T05:31:25.556Z,18.3
2018-09-03T05:32:28.011Z,18.3
2018-09-03T05:33:29.169Z,18.1
2018-09-03T05:34:30.656Z,18.3
2018-09-03T05:35:31.916Z,18.4
2018-09-03T05:36:33.074Z,18.4
2018-09-03T05:37:34.266Z,18.4
2018-09-03T05:38:35.452Z,18.4
2018-09-03T05:39:36.670Z,18.4
2018-09-03T05:40:37.892Z,18.4
2018-09-03T05:41:39.114Z,18.4
2018-09-03T05:42:40.360Z,18.3
2018-09-03T05:43:42.790Z,18.2
2018-09-03T05:44:44.619Z,18.4
2018-09-03T05:45:45.809Z,18.3
2018-09-03T05:46:47.124Z,18.4
2018-09-03T05:47:48.516Z,18.4
2018-09-03T05:48:49.685Z,18.5
2018-09-03T05:49:50.935Z,18.5
2018-09-03T05:50:54.367Z,18.4
2018-09-03T05:51:55.634Z,18.5
2018-09-03T05:52:56.795Z,18.5
2018-09-03T05:53:58.094Z,18.5
2018-09-03T05:54:59.555Z,18.5
2018-09-03T05:56:00.722Z,18.5
2018-09-03T05:57:01.959Z,18.5
2018-09-03T05:58:03.136Z,18.5
2018-09-03T05:59:04.390Z,18.5
2018-09-03T06:00:05.624Z,18.4
2018-09-03T06:01:06.856Z,18.5
2018-09-03T06:02:08.072Z,18.5
2018-09-03T06:03:09.317Z,18.5
2018-09-03T06:04:10.572Z,18.5
2018-09-03T06:05:12.800Z,18.5
2018-09-03T06:06:14.071Z,18.6
2018-09-03T06:07:15.253Z,18.5
2018-09-03T06:08:16.427Z,18.5
2018-09-03T06:09:17.601Z,18.5
2018-09-03T06:10:18.793Z,18.6
2018-09-03T06:11:26.190Z,18.7
2018-09-03T06:12:27.440Z,18.7
2018-09-03T06:13:28.632Z,18.7
2018-09-03T06:14:29.818Z,18.8
2018-09-03T06:15:31.124Z,18.7
2018-09-03T06:16:32.490Z,18.8
2018-09-03T06:17:33.793Z,18.8
2018-09-03T06:18:34.963Z,18.8
2018-09-03T06:19:36.166Z,18.9
2018-09-03T06:20:37.440Z,18.9
2018-09-03T06:21:38.978Z,19
2018-09-03T06:22:40.204Z,19
2018-09-03T06:23:41.440Z,19
2018-09-03T06:24:45.760Z,18.9
2018-09-03T06:25:46.980Z,19
2018-09-03T06:26:51.618Z,19
2018-09-03T06:27:53.522Z,19
2018-09-03T06:28:54.717Z,19
2018-09-03T06:29:55.944Z,19
2018-09-03T06:30:57.243Z,19
2018-09-03T06:31:59.762Z,19
2018-09-03T06:33:01.090Z,19.1
2018-09-03T06:34:02.380Z,19.3
2018-09-03T06:35:03.628Z,19.3
2018-09-03T06:36:04.895Z,19.2
2018-09-03T06:37:06.085Z,19.2
2018-09-03T06:38:07.307Z,19.2
2018-09-03T06:39:08.521Z,19.3
2018-09-03T06:40:11.977Z,19.3
2018-09-03T06:41:13.321Z,19.2
2018-09-03T06:42:14.619Z,19.3
2018-09-03T06:43:15.803Z,19.2
2018-09-03T06:44:19.302Z,19.2
2018-09-03T06:45:23.536Z,19.4
2018-09-03T06:46:25.219Z,19.3
2018-09-03T06:47:26.588Z,19.3
2018-09-03T06:48:27.835Z,19.3
2018-09-03T06:49:29.088Z,19.4
2018-09-03T06:50:30.288Z,19.3
2018-09-03T06:51:31.704Z,19.3
2018-09-03T06:52:34.006Z,19.4
2018-09-03T06:53:37.729Z,19.4
2018-09-03T06:54:38.839Z,19.5
2018-09-03T06:55:44.150Z,19.5
2018-09-03T06:56:48.205Z,19.6
2018-09-03T06:57:52.272Z,19.5
2018-09-03T06:58:53.516Z,19.6
2018-09-03T06:59:54.793Z,19.7
2018-09-03T07:01:03.740Z,19.8
2018-09-03T07:02:07.450Z,19.8
2018-09-03T07:03:08.717Z,19.9
2018-09-03T07:04:11.416Z,20
2018-09-03T07:05:12.725Z,20
2018-09-03T07:06:16.719Z,20.1
2018-09-03T07:07:25.738Z,20.1
2018-09-03T07:08:26.975Z,20.1
2018-09-03T07:09:30.895Z,20.1
2018-09-03T07:10:34.664Z,20.2
2018-09-03T07:11:38.227Z,20.2
2018-09-03T07:12:42.389Z,20.2
2018-09-03T07:13:43.704Z,20.2
2018-09-03T07:14:48.742Z,20.3
2018-09-03T07:16:02.190Z,20.4
2018-09-03T07:17:03.552Z,20.4
2018-09-03T07:18:05.114Z,20.5
2018-09-03T07:19:10.977Z,20.5
2018-09-03T07:20:19.833Z,20.5
2018-09-03T07:21:21.613Z,20.4
2018-09-03T07:22:28.093Z,20.6
2018-09-03T07:23:29.342Z,20.6
2018-09-03T07:24:30.542Z,20.7
2018-09-03T07:25:31.732Z,20.8
2018-09-03T07:26:32.967Z,20.9
2018-09-03T07:27:34.212Z,20.9
2018-09-03T07:28:36.308Z,20.9
2018-09-03T07:29:37.666Z,20.9
2018-09-03T07:30:40.244Z,20.9
2018-09-03T07:31:41.473Z,21
2018-09-03T07:32:45.157Z,21
2018-09-03T07:33:48.874Z,21.1
2018-09-03T07:34:50.064Z,21.1
2018-09-03T07:35:51.289Z,21.1
2018-09-03T07:36:54.016Z,21.2
2018-09-03T07:37:55.272Z,21.2
2018-09-03T07:38:56.475Z,21.1
2018-09-03T07:39:59.897Z,21
2018-09-03T07:41:01.241Z,21
2018-09-03T07:42:02.587Z,21
2018-09-03T07:43:03.908Z,21
2018-09-03T07:44:05.127Z,21
2018-09-03T07:45:06.383Z,21.1
2018-09-03T07:46:07.636Z,21.2
2018-09-03T07:47:21.314Z,21.1
2018-09-03T07:48:22.783Z,21.2
2018-09-03T07:49:24.149Z,21.3
2018-09-03T07:50:26.924Z,21.4
2018-09-03T07:51:42.806Z,21.4
2018-09-03T07:52:48.168Z,21.4
2018-09-03T07:53:49.321Z,21.4
2018-09-03T07:54:51.902Z,21.4
2018-09-03T07:55:53.057Z,21.4
2018-09-03T07:56:56.690Z,21.5
2018-09-03T07:57:57.811Z,21.4
2018-09-03T07:59:03.198Z,21.4
2018-09-03T08:00:04.401Z,21.5
2018-09-03T08:01:10.549Z,21.5
2018-09-03T08:02:11.672Z,21.3
2018-09-03T08:03:15.071Z,21.3
2018-09-03T08:04:16.180Z,21.3
2018-09-03T08:05:17.355Z,21.3
2018-09-03T08:06:18.529Z,21.4
2018-09-03T08:07:19.728Z,21.3
2018-09-03T08:08:20.827Z,21.3
2018-09-03T08:09:21.955Z,21.3
2018-09-03T08:10:23.151Z,21.1
2018-09-03T08:11:24.386Z,21.2
2018-09-03T08:12:25.505Z,21.3
2018-09-03T08:13:28.866Z,21
2018-09-03T08:14:31.911Z,21.2
2018-09-03T08:15:33.082Z,21.2
2018-09-03T08:16:34.233Z,21.3
2018-09-03T08:17:35.550Z,21.2
2018-09-03T08:18:36.720Z,21.2
2018-09-03T08:19:37.889Z,21.2
2018-09-03T08:20:39.236Z,21
2018-09-03T08:21:50.522Z,21.2
2018-09-03T08:22:51.626Z,20.9
2018-09-03T08:23:55.219Z,20.8
2018-09-03T08:24:56.376Z,20.7
2018-09-03T08:25:57.556Z,20.6
2018-09-03T08:26:58.751Z,20.7
2018-09-03T08:27:59.908Z,20.8
2018-09-03T08:29:03.534Z,20.8
2018-09-03T08:30:07.164Z,20.8
2018-09-03T08:31:11.546Z,20.9
2018-09-03T08:32:12.744Z,20.8
2018-09-03T08:33:16.982Z,20.8
2018-09-03T08:34:18.231Z,20.7
2018-09-03T08:35:19.498Z,20.7
2018-09-03T08:36:20.679Z,20.7
2018-09-03T08:37:24.238Z,20.7
2018-09-03T08:38:25.417Z,20.7
2018-09-03T08:39:26.544Z,20.8
2018-09-03T08:40:29.921Z,20.9
2018-09-03T08:41:31.156Z,20.9
2018-09-03T08:42:32.349Z,20.8
2018-09-03T08:43:33.562Z,20.9
2018-09-03T08:44:34.699Z,20.9
2018-09-03T08:45:35.832Z,20.8
2018-09-03T08:46:39.356Z,20.9
2018-09-03T08:47:40.506Z,20.9
2018-09-03T08:48:44.082Z,20.8
2018-09-03T08:49:47.508Z,20.8
2018-09-03T08:50:48.670Z,20.8
2018-09-03T08:51:49.931Z,20.6
2018-09-03T08:52:54.485Z,20.7
2018-09-03T08:53:57.943Z,20.8
2018-09-03T08:54:59.116Z,21
2018-09-03T08:56:00.238Z,21
2018-09-03T08:57:01.537Z,21
2018-09-03T08:58:02.819Z,21
2018-09-03T08:59:05.291Z,21
2018-09-03T09:00:11.619Z,21
2018-09-03T09:01:12.827Z,21.1
2018-09-03T09:02:14.036Z,21
2018-09-03T09:03:15.193Z,20.9
2018-09-03T09:04:22.467Z,21
2018-09-03T09:05:25.823Z,21
2018-09-03T09:06:29.669Z,21
2018-09-03T09:07:37.101Z,21.1
2018-09-03T09:08:38.240Z,21.1
2018-09-03T09:09:42.211Z,21.2
2018-09-03T09:10:46.251Z,21.1
2018-09-03T09:11:47.396Z,21.2
2018-09-03T09:12:48.566Z,21.2
2018-09-03T09:13:54.622Z,21.1
2018-09-03T09:14:55.775Z,21
2018-09-03T09:15:59.599Z,21
2018-09-03T09:17:03.318Z,21
2018-09-03T09:18:07.320Z,21
2018-09-03T09:19:08.512Z,21
2018-09-03T09:20:09.654Z,21
2018-09-03T09:21:10.771Z,21
2018-09-03T09:22:11.915Z,21.1
2018-09-03T09:23:13.248Z,21.1
2018-09-03T09:24:14.391Z,21.2
2018-09-03T09:25:16.944Z,21.3
2018-09-03T09:26:32.777Z,21.2
2018-09-03T09:27:44.043Z,21
2018-09-03T09:28:45.212Z,20.8
2018-09-03T09:29:46.326Z,20.9
2018-09-03T09:30:47.452Z,20.7
2018-09-03T09:31:50.950Z,20.8
2018-09-03T09:32:54.550Z,20.8
2018-09-03T09:33:55.713Z,20.7
2018-09-03T09:34:56.894Z,20.5
2018-09-03T09:36:00.287Z,20.7
2018-09-03T09:37:01.539Z,20.7
2018-09-03T09:38:02.720Z,20.7
2018-09-03T09:39:06.713Z,20.5
2018-09-03T09:40:07.827Z,20.7
2018-09-03T09:41:11.695Z,20.7
2018-09-03T09:42:17.529Z,20.6
2018-09-03T09:43:18.708Z,20.6
2018-09-03T09:44:19.924Z,20.6
2018-09-03T09:45:21.076Z,20.7
2018-09-03T09:46:22.287Z,20.5
2018-09-03T09:47:23.646Z,20.5
2018-09-03T09:48:27.196Z,20.6
2018-09-03T09:49:28.387Z,20.6
2018-09-03T09:50:31.171Z,20.6
2018-09-03T09:51:34.825Z,20.5
2018-09-03T09:52:35.942Z,20.6
2018-09-03T09:53:37.090Z,20.5
2018-09-03T09:54:38.290Z,20.6
2018-09-03T09:55:42.433Z,20.6
2018-09-03T09:56:43.645Z,20.6
2018-09-03T09:57:44.757Z,20.7
2018-09-03T09:58:45.959Z,20.8
2018-09-03T09:59:47.121Z,20.8
2018-09-03T10:00:48.285Z,20.6
2018-09-03T10:01:49.404Z,20.7
2018-09-03T10:02:51.947Z,20.8
2018-09-03T10:03:53.127Z,20.8
2018-09-03T10:04:54.990Z,20.9
2018-09-03T10:05:56.147Z,20.8
2018-09-03T10:06:57.346Z,20.9
2018-09-03T10:07:58.516Z,20.8
2018-09-03T10:08:59.697Z,20.8
2018-09-03T10:10:01.267Z,20.8
2018-09-03T10:11:02.547Z,20.8
2018-09-03T10:12:09.211Z,20.9
2018-09-03T10:13:10.640Z,21
2018-09-03T10:14:16.970Z,20.8
2018-09-03T10:15:18.530Z,20.8
2018-09-03T10:16:22.004Z,20.9
2018-09-03T10:17:25.961Z,20.7
2018-09-03T10:18:27.218Z,20.8
2018-09-03T10:19:28.374Z,20.9
2018-09-03T10:20:29.624Z,20.9
2018-09-03T10:21:30.814Z,21
2018-09-03T10:22:32.040Z,21
2018-09-03T10:23:33.228Z,21
2018-09-03T10:24:36.590Z,20.9
2018-09-03T10:25:39.767Z,21
2018-09-03T10:26:40.879Z,21
2018-09-03T10:27:44.002Z,21
2018-09-03T10:28:45.730Z,21.1
2018-09-03T10:29:46.889Z,21.1
2018-09-03T10:30:49.205Z,21.1
2018-09-03T10:31:57.939Z,21.2
2018-09-03T10:33:01.673Z,21.2
2018-09-03T10:34:06.168Z,21.1
2018-09-03T10:35:07.380Z,21.1
2018-09-03T10:36:08.619Z,20.9
2018-09-03T10:37:09.779Z,21
2018-09-03T10:38:16.335Z,21.1
2018-09-03T10:39:17.769Z,21.1
2018-09-03T10:40:27.947Z,21.1
2018-09-03T10:41:31.345Z,21.1
2018-09-03T10:42:32.524Z,21.1
2018-09-03T10:43:44.301Z,21.1
2018-09-03T10:44:48.585Z,21
2018-09-03T10:45:49.759Z,20.9
2018-09-03T10:46:55.035Z,21
2018-09-03T10:47:56.116Z,20.9
2018-09-03T10:48:57.343Z,20.8
2018-09-03T10:50:01.354Z,20.7
2018-09-03T10:51:05.967Z,20.9
2018-09-03T10:52:08.418Z,20.9
2018-09-03T10:53:09.767Z,20.9
2018-09-03T10:54:16.882Z,20.8
2018-09-03T10:55:19.245Z,20.8
2018-09-03T10:56:21.080Z,20.6
2018-09-03T10:57:22.287Z,20.8
2018-09-03T10:58:23.465Z,20.9
2018-09-03T10:59:24.671Z,20.9
2018-09-03T11:00:25.823Z,20.9
2018-09-03T11:01:29.585Z,20.9
2018-09-03T11:02:33.262Z,20.8
2018-09-03T11:03:38.716Z,20.7
2018-09-03T11:04:40.922Z,20.7
2018-09-03T11:05:42.039Z,20.8
2018-09-03T11:06:45.541Z,20.6
2018-09-03T11:07:48.250Z,20.9
2018-09-03T11:08:50.884Z,20.7
2018-09-03T11:09:52.051Z,20.6
2018-09-03T11:10:53.349Z,20.8
2018-09-03T11:11:54.585Z,20.6
2018-09-03T11:12:55.850Z,20.6
2018-09-03T11:13:59.826Z,20.5
2018-09-03T11:15:08.294Z,20.6
2018-09-03T11:16:09.680Z,20.5
2018-09-03T11:17:11.057Z,20.7
2018-09-03T11:18:12.416Z,20.7
2018-09-03T11:19:13.867Z,20.7
2018-09-03T11:20:23.582Z,20.6
2018-09-03T11:21:26.024Z,20.5
2018-09-03T11:22:31.673Z,20.7
2018-09-03T11:23:35.200Z,20.7
2018-09-03T11:24:36.374Z,20.8
2018-09-03T11:25:40.453Z,20.9
2018-09-03T11:26:41.714Z,20.8
2018-09-03T11:27:42.957Z,20.9
2018-09-03T11:28:44.202Z,20.9
2018-09-03T11:29:45.359Z,20.9
2018-09-03T11:30:47.644Z,20.9
2018-09-03T11:31:51.724Z,21
2018-09-03T11:32:55.774Z,21.1
2018-09-03T11:33:57.256Z,21.1
2018-09-03T11:35:04.534Z,21.1
2018-09-03T11:36:05.745Z,21.1
2018-09-03T11:37:13.148Z,21.1
2018-09-03T11:38:17.149Z,21.1
2018-09-03T11:39:23.024Z,21.1
2018-09-03T11:40:26.755Z,21.1
2018-09-03T11:41:27.925Z,21.1
2018-09-03T11:42:29.192Z,21.1
2018-09-03T11:43:30.505Z,21.1
2018-09-03T11:44:31.730Z,21.1
2018-09-03T11:45:32.937Z,21.1
2018-09-03T11:46:34.210Z,21.2
2018-09-03T11:47:35.400Z,21.2
2018-09-03T11:48:37.908Z,21.2
2018-09-03T11:49:39.244Z,21.1
2018-09-03T11:50:40.391Z,21.1
2018-09-03T11:51:44.646Z,21.2
2018-09-03T11:52:45.812Z,21.2
2018-09-03T11:53:54.193Z,21.2
2018-09-03T11:54:58.406Z,21.2
2018-09-03T11:55:59.552Z,21.1
2018-09-03T11:57:03.132Z,21.1
2018-09-03T11:58:04.401Z,21.2
2018-09-03T11:59:05.629Z,21.1
2018-09-03T12:00:10.971Z,21
2018-09-03T12:01:12.127Z,21.1
2018-09-03T12:02:13.306Z,20.9
2018-09-03T12:03:16.090Z,21.1
2018-09-03T12:04:21.589Z,21.1
2018-09-03T12:05:30.419Z,21.2
2018-09-03T12:06:35.026Z,21.2
2018-09-03T12:07:36.194Z,21.3
2018-09-03T12:08:44.296Z,21.4
2018-09-03T12:09:45.496Z,21.4
2018-09-03T12:10:49.059Z,21.4
2018-09-03T12:11:50.479Z,21.4
2018-09-03T12:12:51.605Z,21.5
2018-09-03T12:13:52.741Z,21.3
2018-09-03T12:14:55.204Z,21.4
2018-09-03T12:15:56.398Z,21.5
2018-09-03T12:16:59.470Z,21.5
2018-09-03T12:18:00.584Z,21.5
2018-09-03T12:19:01.769Z,21.5
2018-09-03T12:20:04.083Z,21.5
2018-09-03T12:21:05.342Z,21.5
2018-09-03T12:22:09.193Z,21.6
2018-09-03T12:23:10.389Z,21.6
2018-09-03T12:24:16.112Z,21.7
2018-09-03T12:25:18.974Z,21.6
2018-09-03T12:26:22.337Z,21.5
2018-09-03T12:27:27.718Z,21.5
2018-09-03T12:28:31.112Z,21.6
2018-09-03T12:29:32.241Z,21.6
2018-09-03T12:30:33.397Z,21.6
2018-09-03T12:31:34.832Z,21.6
2018-09-03T12:32:38.764Z,21.6
2018-09-03T12:33:41.251Z,21.6
2018-09-03T12:34:44.621Z,21.7
2018-09-03T12:35:50.798Z,21.8
2018-09-03T12:36:52.370Z,21.7
2018-09-03T12:37:53.540Z,21.7
2018-09-03T12:38:54.820Z,21.8
2018-09-03T12:39:55.991Z,21.7
2018-09-03T12:40:57.171Z,21.9
2018-09-03T12:41:58.657Z,21.9
2018-09-03T12:42:59.863Z,21.9
2018-09-03T12:44:01.156Z,21.9
2018-09-03T12:45:02.372Z,22
2018-09-03T12:46:04.741Z,22
2018-09-03T12:47:05.915Z,22.1
2018-09-03T12:48:07.135Z,22.1
2018-09-03T12:49:08.294Z,22
2018-09-03T12:50:09.493Z,22.2
2018-09-03T12:51:13.229Z,22.2
2018-09-03T12:52:14.477Z,22.2
2018-09-03T12:53:15.657Z,22.2
2018-09-03T12:54:19.057Z,22.1
2018-09-03T12:55:20.274Z,22.3
2018-09-03T12:56:24.317Z,22.2
2018-09-03T12:58:43.788Z,22.3
2018-09-03T12:59:44.969Z,22.3
2018-09-03T13:00:46.258Z,22.4
2018-09-03T13:01:47.697Z,22.4
2018-09-03T13:02:48.929Z,22.4
2018-09-03T13:03:52.266Z,22.4
2018-09-03T13:04:53.399Z,22.4
2018-09-03T13:05:54.614Z,22.5
2018-09-03T13:06:55.754Z,22.5
2018-09-03T13:07:59.537Z,22.5
2018-09-03T13:09:00.731Z,22.5
2018-09-03T13:10:04.774Z,22.7
2018-09-03T13:11:08.594Z,22.7
2018-09-03T13:12:11.928Z,22.7
2018-09-03T13:13:15.339Z,22.7
2018-09-03T13:14:19.502Z,22.7
2018-09-03T13:15:20.654Z,22.6
2018-09-03T13:16:21.803Z,22.6
2018-09-03T13:17:26.156Z,22.5
2018-09-03T13:18:27.424Z,22.4
2018-09-03T13:20:44.321Z,22.5
2018-09-03T13:21:48.462Z,22.7
2018-09-03T13:22:49.669Z,22.7
2018-09-03T13:23:53.289Z,22.7
2018-09-03T13:24:55.734Z,22.7
2018-09-03T13:25:56.870Z,22.7
2018-09-03T13:28:21.440Z,22.7
2018-09-03T13:29:24.585Z,22.5
2018-09-03T13:30:27.929Z,22.6
2018-09-03T13:31:31.627Z,22.7
2018-09-03T13:32:38.106Z,22.6
2018-09-03T13:33:42.048Z,22.7
2018-09-03T13:34:45.705Z,22.7
2018-09-03T13:35:46.893Z,22.7
2018-09-03T13:36:48.021Z,22.7
2018-09-03T13:37:49.238Z,22.8
2018-09-03T13:38:53.195Z,22.9
2018-09-03T13:39:56.711Z,22.8
2018-09-03T13:40:57.953Z,22.7
2018-09-03T13:42:01.647Z,22.8
2018-09-03T13:43:05.279Z,22.9
2018-09-03T13:44:07.644Z,22.9
2018-09-03T13:45:11.247Z,22.8
2018-09-03T13:46:12.427Z,22.8
2018-09-03T13:47:13.623Z,22.9
2018-09-03T13:48:17.253Z,23
2018-09-03T13:49:18.371Z,23
2018-09-03T13:50:19.693Z,23.1
2018-09-03T13:51:21.148Z,23.1
2018-09-03T13:52:28.143Z,23.1
2018-09-03T13:53:29.506Z,23.1
2018-09-03T13:54:30.830Z,23.1